Time;durP1;ratioP1;P1;durP2;ratioP2;P2;SDS_P1;SDS_P2;PMS_P1;PMS_P2;Temp;Humidity;BMP_temperature;BMP_pressure;BME280_temperature;BME280_humidity;BME280_pressure;Samples;Min_cycle;Max_cycle;Signal;HPM_P1;HPM_P2
2022/11/01 00:01:12;;;;;;;;;;;14.20;62.60;;;;;;4986008;28;87169;-38
2022/11/01 00:03:38;;;;;;;;;;;14.20;62.60;;;;;;4985556;28;87960;-38
2022/11/01 00:06:04;;;;;;;;;;;14.20;62.60;;;;;;4985589;28;88151;-38
2022/11/01 00:08:29;;;;;;;;;;;14.20;62.60;;;;;;4985831;28;86917;-38
2022/11/01 00:11:05;;;;;;;;;;;14.20;62.60;;;;;;4985917;28;87009;-38
2022/11/01 00:13:31;;;;;;;;;;;14.20;62.60;;;;;;4987914;28;88126;-38
2022/11/01 00:15:56;;;;;;;;;;;14.20;62.70;;;;;;4985676;28;87339;-38
2022/11/01 00:18:22;;;;;;;;;;;14.20;62.60;;;;;;4985518;28;88081;-38
2022/11/01 00:20:48;;;;;;;;;;;14.20;62.60;;;;;;4986070;28;86778;-38
2022/11/01 00:23:13;;;;;;;;;;;14.20;62.60;;;;;;4986077;28;88064;-38
2022/11/01 00:25:39;;;;;;;;;;;14.10;62.60;;;;;;4985350;28;88179;-38
2022/11/01 00:28:04;;;;;;;;;;;14.10;62.50;;;;;;4984767;28;88262;-38
2022/11/01 00:30:30;;;;;;;;;;;14.10;62.60;;;;;;4985630;28;87381;-38
2022/11/01 00:32:56;;;;;;;;;;;14.10;62.60;;;;;;4985016;28;88117;-38
2022/11/01 00:35:21;;;;;;;;;;;14.10;62.50;;;;;;4988560;28;87048;-38
2022/11/01 00:37:47;;;;;;;;;;;14.10;62.50;;;;;;4985199;28;88075;-38
2022/11/01 00:40:12;;;;;;;;;;;14.10;62.60;;;;;;4985606;28;87100;-38
2022/11/01 00:42:37;;;;;;;;;;;14.00;62.50;;;;;;4985512;28;87406;-38
2022/11/01 00:45:04;;;;;;;;;;;14.00;62.50;;;;;;4985420;28;87439;-38
2022/11/01 00:47:29;;;;;;;;;;;14.00;62.50;;;;;;4985353;28;87114;-38
2022/11/01 00:49:55;;;;;;;;;;;14.00;62.50;;;;;;4985448;28;86882;-38
2022/11/01 00:52:20;;;;;;;;;;;14.00;63.10;;;;;;4984513;28;89105;-38
2022/11/01 00:54:45;;;;;;;;;;;14.00;62.50;;;;;;4988153;28;86812;-38
2022/11/01 00:57:11;;;;;;;;;;;14.00;62.50;;;;;;4984701;28;88402;-38
2022/11/01 00:59:36;;;;;;;;;;;14.00;62.50;;;;;;4985074;28;87087;-38
2022/11/01 01:02:02;;;;;;;;;;;14.00;62.50;;;;;;4983916;28;87051;-38
2022/11/01 01:04:28;;;;;;;;;;;13.90;62.50;;;;;;4984736;28;88364;-38
2022/11/01 01:06:53;;;;;;;;;;;14.00;62.60;;;;;;4984917;28;86985;-38
2022/11/01 01:09:19;;;;;;;;;;;14.00;62.60;;;;;;4985391;28;87227;-38
2022/11/01 01:11:44;;;;;;;;;;;13.90;62.50;;;;;;4984214;28;88758;-38
2022/11/01 01:14:10;;;;;;;;;;;13.90;62.50;;;;;;4984912;28;87157;-38
2022/11/01 01:16:35;;;;;;;;;;;13.90;62.40;;;;;;4986733;28;87998;-38
2022/11/01 01:19:01;;;;;;;;;;;13.90;62.50;;;;;;4984789;28;87035;-38
2022/11/01 01:21:26;;;;;;;;;;;13.90;62.50;;;;;;4984749;28;87400;-38
2022/11/01 01:23:53;;;;;;;;;;;13.90;62.50;;;;;;4984313;28;88103;-38
2022/11/01 01:26:19;;;;;;;;;;;13.90;62.50;;;;;;4984584;28;87094;-38
2022/11/01 01:28:44;;;;;;;;;;;13.90;62.50;;;;;;4984479;28;87524;-38
2022/11/01 01:31:11;;;;;;;;;;;13.80;62.50;;;;;;4984389;28;87210;-38
2022/11/01 01:33:37;;;;;;;;;;;13.80;62.50;;;;;;4985098;28;86374;-38
2022/11/01 01:36:03;;;;;;;;;;;13.80;62.40;;;;;;4984425;28;87571;-38
2022/11/01 01:38:29;;;;;;;;;;;13.80;62.40;;;;;;4986917;28;87959;-38
2022/11/01 01:40:54;;;;;;;;;;;13.80;62.50;;;;;;4983788;28;87998;-38
2022/11/01 01:43:20;;;;;;;;;;;13.80;62.50;;;;;;4983745;28;88106;-38
2022/11/01 01:45:46;;;;;;;;;;;13.80;62.50;;;;;;4984031;28;87186;-38
2022/11/01 01:48:14;;;;;;;;;;;13.80;62.50;;;;;;4984160;28;88094;-38
2022/11/01 01:50:46;;;;;;;;;;;13.70;62.40;;;;;;4983914;28;87932;-38
2022/11/01 01:53:37;;;;;;;;;;;13.70;62.40;;;;;;4984084;28;87021;-38
2022/11/01 01:56:04;;;;;;;;;;;13.70;62.50;;;;;;4983609;28;87704;-38
2022/11/01 01:58:37;;;;;;;;;;;13.70;62.40;;;;;;4984213;28;87216;-38
2022/11/01 02:01:03;;;;;;;;;;;13.70;62.40;;;;;;4986977;28;87137;-38
2022/11/01 02:03:30;;;;;;;;;;;13.70;63.00;;;;;;4983904;28;87967;-38
2022/11/01 02:06:07;;;;;;;;;;;13.60;62.40;;;;;;4983439;28;88153;-38
2022/11/01 02:08:34;;;;;;;;;;;13.70;62.40;;;;;;4983855;28;88640;-38
2022/11/01 02:11:01;;;;;;;;;;;13.70;62.40;;;;;;4983690;28;87259;-38
2022/11/01 02:13:27;;;;;;;;;;;13.60;62.40;;;;;;4982960;28;87002;-38
2022/11/01 02:16:05;;;;;;;;;;;13.60;62.40;;;;;;4983878;28;87622;-38
2022/11/01 02:18:37;;;;;;;;;;;13.60;62.40;;;;;;4983687;28;88083;-38
2022/11/01 02:21:20;;;;;;;;;;;13.60;62.40;;;;;;4983576;28;86932;-38
2022/11/01 02:24:00;;;;;;;;;;;13.60;62.40;;;;;;4986918;28;88679;-38
2022/11/01 02:26:38;;;;;;;;;;;13.60;62.30;;;;;;4983732;28;87613;-38
2022/11/01 02:29:09;;;;;;;;;;;13.60;62.40;;;;;;4983616;28;87432;-38
2022/11/01 02:31:53;;;;;;;;;;;13.50;62.30;;;;;;4982602;28;89142;-38
2022/11/01 02:34:24;;;;;;;;;;;13.50;62.40;;;;;;4983856;28;87158;-38
2022/11/01 02:37:02;;;;;;;;;;;13.50;62.40;;;;;;4983555;28;87554;-38
2022/11/01 02:39:33;;;;;;;;;;;13.50;62.50;;;;;;4983259;28;88147;-38
2022/11/01 02:42:24;;;;;;;;;;;13.50;62.30;;;;;;4983343;28;86948;-38
2022/11/01 02:44:53;;;;;;;;;;;13.50;62.40;;;;;;4985527;28;87188;-38
2022/11/01 02:47:19;;;;;;;;;;;13.50;62.50;;;;;;4983076;28;87068;-38
2022/11/01 02:49:47;;;;;;;;;;;13.50;62.40;;;;;;4983771;28;87421;-38
2022/11/01 02:52:14;;;;;;;;;;;13.40;62.30;;;;;;4982689;28;87661;-38
2022/11/01 02:54:44;;;;;;;;;;;13.40;62.40;;;;;;4983162;28;87122;-38
2022/11/01 02:57:24;;;;;;;;;;;13.40;62.40;;;;;;4982710;28;87948;-38
2022/11/01 02:59:50;;;;;;;;;;;13.40;62.40;;;;;;4983030;28;88642;-38
2022/11/01 03:02:38;;;;;;;;;;;13.40;62.30;;;;;;4983294;28;87061;-38
2022/11/01 03:05:06;;;;;;;;;;;13.40;62.30;;;;;;4983751;28;87478;-38
2022/11/01 03:07:31;;;;;;;;;;;13.40;62.20;;;;;;4985487;28;88136;-38
2022/11/01 03:09:58;;;;;;;;;;;13.40;62.30;;;;;;4983100;28;87412;-38
2022/11/01 03:12:27;;;;;;;;;;;13.40;62.30;;;;;;4982157;28;88108;-38
2022/11/01 03:14:55;;;;;;;;;;;13.30;62.30;;;;;;4983598;28;86355;-38
2022/11/01 03:17:24;;;;;;;;;;;13.40;62.30;;;;;;4982861;28;86955;-38
2022/11/01 03:19:59;;;;;;;;;;;13.30;62.20;;;;;;4982700;28;88729;-38
2022/11/01 03:22:24;;;;;;;;;;;13.40;62.40;;;;;;4982246;28;88045;-38
2022/11/01 03:28:06;;;;;;;;;;;13.30;62.40;;;;;;4981639;28;87284;-38
2022/11/01 03:30:32;;;;;;;;;;;13.30;62.40;;;;;;4985552;28;87300;-38
2022/11/01 03:32:58;;;;;;;;;;;13.30;62.40;;;;;;4982550;28;87614;-38
2022/11/01 03:35:29;;;;;;;;;;;13.20;62.40;;;;;;4982955;28;87146;-38
2022/11/01 03:37:56;;;;;;;;;;;13.20;62.30;;;;;;4982919;28;87420;-38
2022/11/01 03:40:23;;;;;;;;;;;13.20;62.40;;;;;;4982613;28;87618;-38
2022/11/01 03:42:50;;;;;;;;;;;13.20;62.30;;;;;;4982701;28;87106;-38
2022/11/01 03:45:18;;;;;;;;;;;13.20;62.30;;;;;;4982534;28;87504;-38
2022/11/01 03:47:43;;;;;;;;;;;13.20;62.30;;;;;;4981323;28;88932;-38
2022/11/01 03:50:10;;;;;;;;;;;13.20;62.40;;;;;;4982806;28;87497;-39
2022/11/01 03:52:36;;;;;;;;;;;13.20;62.40;;;;;;4985220;28;87408;-38
2022/11/01 03:55:16;;;;;;;;;;;13.20;62.40;;;;;;4982264;28;87181;-38
2022/11/01 03:57:48;;;;;;;;;;;13.10;62.30;;;;;;4982668;28;87312;-38
2022/11/01 04:00:18;;;;;;;;;;;13.20;62.40;;;;;;4982086;28;88038;-38
2022/11/01 04:02:44;;;;;;;;;;;13.10;62.30;;;;;;4982270;28;86952;-38
2022/11/01 04:05:10;;;;;;;;;;;13.10;62.30;;;;;;4982912;28;87173;-38
2022/11/01 04:07:36;;;;;;;;;;;13.10;62.40;;;;;;4981769;28;88078;-38
2022/11/01 04:10:01;;;;;;;;;;;13.10;62.40;;;;;;4982342;28;87046;-38
2022/11/01 04:12:27;;;;;;;;;;;13.10;62.40;;;;;;4981615;28;87812;-38
2022/11/01 04:20:32;;;;;;;;;;;13.00;62.30;;;;;;4982057;28;87259;-38
2022/11/01 04:23:02;;;;;;;;;;;13.00;62.40;;;;;;4982519;28;86900;-38
2022/11/01 04:25:28;;;;;;;;;;;13.00;62.50;;;;;;4982370;28;87470;-38
2022/11/01 04:27:56;;;;;;;;;;;13.00;62.50;;;;;;4981680;28;88285;-38
2022/11/01 04:30:22;;;;;;;;;;;13.00;62.40;;;;;;4982638;28;86281;-38
2022/11/01 04:32:47;;;;;;;;;;;13.00;62.40;;;;;;4981894;28;87022;-38
2022/11/01 04:35:13;;;;;;;;;;;12.90;62.30;;;;;;4982118;28;88101;-38
2022/11/01 04:37:38;;;;;;;;;;;12.90;62.50;;;;;;4987828;28;88139;-38
2022/11/01 04:40:08;;;;;;;;;;;12.90;62.50;;;;;;4985118;28;88236;-38
2022/11/01 04:42:34;;;;;;;;;;;12.90;62.50;;;;;;4985269;28;87045;-38
2022/11/01 04:44:59;;;;;;;;;;;12.90;62.50;;;;;;4985306;28;87251;-38
2022/11/01 04:47:25;;;;;;;;;;;12.90;62.50;;;;;;4984653;28;89114;-38
2022/11/01 04:49:50;;;;;;;;;;;12.80;62.50;;;;;;4985332;28;86958;-38
2022/11/01 04:52:16;;;;;;;;;;;12.80;62.40;;;;;;4985150;28;87310;-38
2022/11/01 04:54:41;;;;;;;;;;;12.90;62.40;;;;;;4985314;28;86549;-38
2022/11/01 04:57:07;;;;;;;;;;;12.80;62.50;;;;;;4988143;28;87212;-38
2022/11/01 04:59:32;;;;;;;;;;;12.80;62.50;;;;;;4984786;28;88040;-38
2022/11/01 05:01:58;;;;;;;;;;;12.80;62.50;;;;;;4984425;28;87905;-38
2022/11/01 05:04:23;;;;;;;;;;;12.80;62.50;;;;;;4984942;28;88487;-38
2022/11/01 05:06:49;;;;;;;;;;;12.80;62.40;;;;;;4984602;28;87952;-38
2022/11/01 05:09:14;;;;;;;;;;;12.80;62.50;;;;;;4984929;28;87057;-38
2022/11/01 05:11:40;;;;;;;;;;;12.70;62.50;;;;;;4984583;28;87398;-38
2022/11/01 05:14:06;;;;;;;;;;;12.70;62.70;;;;;;4984662;28;88057;-38
2022/11/01 05:16:31;;;;;;;;;;;12.70;62.60;;;;;;4984786;28;87835;-38
2022/11/01 05:18:57;;;;;;;;;;;12.70;62.70;;;;;;4987970;28;87611;-38
2022/11/01 05:21:22;;;;;;;;;;;12.70;62.50;;;;;;4984621;28;87164;-38
2022/11/01 05:23:48;;;;;;;;;;;12.70;62.50;;;;;;4984911;28;87586;-38
2022/11/01 05:26:13;;;;;;;;;;;12.70;62.50;;;;;;4983601;28;88980;-38
2022/11/01 05:28:39;;;;;;;;;;;12.70;62.50;;;;;;4984547;28;87141;-38
2022/11/01 05:31:04;;;;;;;;;;;12.70;62.50;;;;;;4984418;28;87544;-38
2022/11/01 05:33:30;;;;;;;;;;;12.70;62.50;;;;;;4984297;28;88269;-38
2022/11/01 05:35:55;;;;;;;;;;;12.70;62.30;;;;;;4984576;28;87126;-38
2022/11/01 05:38:21;;;;;;;;;;;12.60;62.40;;;;;;4984395;28;87101;-38
2022/11/01 05:40:47;;;;;;;;;;;12.60;62.50;;;;;;4986960;28;87986;-38
2022/11/01 05:43:12;;;;;;;;;;;12.60;62.60;;;;;;4984897;28;87455;-38
2022/11/01 05:45:38;;;;;;;;;;;12.60;62.50;;;;;;4983683;28;88023;-38
2022/11/01 05:48:03;;;;;;;;;;;12.60;62.60;;;;;;4983397;28;87178;-38
2022/11/01 05:50:29;;;;;;;;;;;12.60;62.40;;;;;;4983765;28;87921;-38
2022/11/01 05:52:54;;;;;;;;;;;12.60;62.40;;;;;;4983890;28;87159;-38
2022/11/01 05:55:20;;;;;;;;;;;12.60;62.40;;;;;;4984221;28;87125;-38
2022/11/01 05:57:46;;;;;;;;;;;12.60;62.30;;;;;;4984111;28;86983;-38
2022/11/01 06:00:12;;;;;;;;;;;12.60;62.30;;;;;;4983632;28;88189;-38
2022/11/01 06:02:37;;;;;;;;;;;12.60;62.30;;;;;;4986738;28;87227;-39
2022/11/01 06:05:03;;;;;;;;;;;12.60;62.20;;;;;;4983796;28;87171;-38
2022/11/01 06:07:28;;;;;;;;;;;12.60;62.30;;;;;;4984342;28;86322;-38
2022/11/01 06:09:54;;;;;;;;;;;12.60;62.20;;;;;;4984131;28;87195;-38
2022/11/01 06:12:21;;;;;;;;;;;12.60;62.20;;;;;;4983324;28;88020;-38
2022/11/01 06:14:47;;;;;;;;;;;12.50;62.20;;;;;;4983233;28;87876;-38
2022/11/01 06:17:12;;;;;;;;;;;12.60;62.20;;;;;;4983693;28;88384;-38
2022/11/01 06:19:38;;;;;;;;;;;12.60;62.10;;;;;;4983491;28;88101;-38
2022/11/01 06:22:04;;;;;;;;;;;12.50;62.20;;;;;;4984006;28;87004;-38
2022/11/01 06:24:30;;;;;;;;;;;12.60;62.10;;;;;;4986382;28;87388;-38
2022/11/01 06:26:56;;;;;;;;;;;12.60;62.20;;;;;;4983624;28;87498;-38
2022/11/01 06:29:21;;;;;;;;;;;12.60;62.20;;;;;;4984112;28;88189;-38
2022/11/01 06:31:47;;;;;;;;;;;12.60;62.20;;;;;;4983471;28;87471;-38
2022/11/01 06:34:12;;;;;;;;;;;12.50;62.00;;;;;;4983636;28;87540;-38
2022/11/01 06:36:38;;;;;;;;;;;12.60;62.00;;;;;;4983648;28;87262;-38
2022/11/01 06:39:03;;;;;;;;;;;12.60;62.00;;;;;;4982646;28;88988;-38
2022/11/01 06:41:29;;;;;;;;;;;12.50;62.00;;;;;;4983667;28;87066;-38
2022/11/01 06:43:54;;;;;;;;;;;12.50;62.00;;;;;;4983572;28;87705;-38
2022/11/01 06:46:20;;;;;;;;;;;12.50;62.00;;;;;;4985729;28;88231;-38
2022/11/01 06:48:48;;;;;;;;;;;12.50;62.00;;;;;;4983471;28;87095;-38
2022/11/01 06:51:13;;;;;;;;;;;12.60;62.00;;;;;;4983058;28;88258;-38
2022/11/01 06:53:39;;;;;;;;;;;12.60;62.00;;;;;;4983308;28;87128;-38
2022/11/01 06:56:05;;;;;;;;;;;12.60;62.10;;;;;;4983977;28;87765;-38
2022/11/01 06:58:30;;;;;;;;;;;12.60;62.10;;;;;;4983096;28;87999;-38
2022/11/01 07:00:56;;;;;;;;;;;12.50;62.10;;;;;;4983223;28;87169;-38
2022/11/01 07:03:21;;;;;;;;;;;12.50;62.10;;;;;;4982398;28;87742;-38
2022/11/01 07:05:48;;;;;;;;;;;12.50;62.10;;;;;;4985757;28;87168;-38
2022/11/01 07:08:14;;;;;;;;;;;12.50;62.10;;;;;;4983002;28;87193;-38
2022/11/01 07:10:41;;;;;;;;;;;12.50;62.10;;;;;;4982802;28;88182;-38
2022/11/01 07:13:11;;;;;;;;;;;12.50;62.20;;;;;;4982837;28;87133;-38
2022/11/01 07:15:37;;;;;;;;;;;12.50;62.30;;;;;;4982949;28;87385;-38
2022/11/01 07:18:03;;;;;;;;;;;12.50;62.30;;;;;;4982797;28;87253;-38
2022/11/01 07:20:30;;;;;;;;;;;12.50;62.30;;;;;;4983461;28;86272;-38
2022/11/01 07:22:59;;;;;;;;;;;12.50;62.30;;;;;;4983036;28;87039;-38
2022/11/01 07:25:24;;;;;;;;;;;12.50;62.30;;;;;;4982510;28;87943;-38
2022/11/01 07:27:50;;;;;;;;;;;12.50;62.30;;;;;;4985272;28;88146;-38
2022/11/01 07:30:16;;;;;;;;;;;12.50;62.90;;;;;;4982297;28;87946;-38
2022/11/01 07:32:41;;;;;;;;;;;12.50;62.30;;;;;;4982934;28;87118;-38
2022/11/01 07:35:07;;;;;;;;;;;12.50;62.30;;;;;;4982936;28;87341;-38
2022/11/01 07:37:32;;;;;;;;;;;12.50;62.40;;;;;;4980820;28;90997;-38
2022/11/01 07:39:58;;;;;;;;;;;12.50;62.40;;;;;;4982738;28;87152;-38
2022/11/01 07:42:23;;;;;;;;;;;12.50;62.40;;;;;;4982828;28;87459;-38
2022/11/01 07:44:49;;;;;;;;;;;12.50;62.40;;;;;;4982829;28;86417;-38
2022/11/01 07:47:14;;;;;;;;;;;12.50;62.50;;;;;;4982158;28;87146;-38
2022/11/01 07:49:40;;;;;;;;;;;12.50;62.50;;;;;;4985423;28;87479;-38
2022/11/01 07:52:05;;;;;;;;;;;12.50;62.60;;;;;;4982004;28;88013;-38
2022/11/01 07:54:31;;;;;;;;;;;12.50;62.60;;;;;;4982659;28;87577;-38
2022/11/01 07:56:56;;;;;;;;;;;12.50;62.60;;;;;;4982371;28;88227;-38
2022/11/01 07:59:22;;;;;;;;;;;12.50;62.70;;;;;;4982637;28;87184;-38
2022/11/01 08:01:47;;;;;;;;;;;12.50;62.60;;;;;;4982524;28;87412;-38
2022/11/01 08:04:13;;;;;;;;;;;12.50;62.70;;;;;;4982106;28;88182;-38
2022/11/01 08:06:38;;;;;;;;;;;12.50;62.80;;;;;;4982566;28;87700;-38
2022/11/01 08:09:04;;;;;;;;;;;12.40;62.90;;;;;;4982808;28;87543;-38
2022/11/01 08:11:29;;;;;;;;;;;12.40;63.10;;;;;;4986845;28;88095;-38
2022/11/01 08:13:55;;;;;;;;;;;12.40;63.20;;;;;;4985979;28;87408;-38
2022/11/01 08:16:20;;;;;;;;;;;12.40;63.20;;;;;;4984656;28;89099;-38
2022/11/01 08:18:46;;;;;;;;;;;12.30;63.30;;;;;;4985836;28;87296;-38
2022/11/01 08:21:17;;;;;;;;;;;12.40;63.30;;;;;;4985863;28;86910;-38
2022/11/01 08:23:45;;;;;;;;;;;12.30;63.30;;;;;;4985492;28;88297;-38
2022/11/01 08:26:11;;;;;;;;;;;12.30;63.30;;;;;;4985732;28;87075;-38
2022/11/01 08:28:37;;;;;;;;;;;12.40;63.30;;;;;;4985543;28;87375;-38
2022/11/01 08:31:08;;;;;;;;;;;12.40;63.30;;;;;;4985087;28;87869;-38
2022/11/01 08:33:34;;;;;;;;;;;12.40;63.50;;;;;;4989060;28;87555;-38
2022/11/01 08:36:00;;;;;;;;;;;12.40;63.30;;;;;;4985055;28;87871;-38
2022/11/01 08:38:26;;;;;;;;;;;12.40;63.30;;;;;;4985491;28;87084;-38
2022/11/01 08:40:52;;;;;;;;;;;12.40;63.40;;;;;;4985039;28;87766;-38
2022/11/01 08:43:17;;;;;;;;;;;12.40;63.40;;;;;;4985085;28;87224;-38
2022/11/01 08:45:43;;;;;;;;;;;12.50;63.40;;;;;;4985533;28;87337;-38
2022/11/01 08:48:08;;;;;;;;;;;12.50;63.30;;;;;;4985109;28;87351;-38
2022/11/01 08:50:35;;;;;;;;;;;12.50;63.20;;;;;;4984979;28;87969;-38
2022/11/01 08:53:07;;;;;;;;;;;12.50;63.20;;;;;;4985179;28;87027;-38
2022/11/01 08:55:34;;;;;;;;;;;12.50;63.10;;;;;;4987688;28;87524;-38
2022/11/01 08:58:00;;;;;;;;;;;12.50;63.20;;;;;;4985222;28;86377;-38
2022/11/01 09:00:26;;;;;;;;;;;12.50;63.10;;;;;;4985210;28;87040;-38
2022/11/01 09:02:51;;;;;;;;;;;12.50;63.10;;;;;;4984711;28;88338;-38
2022/11/01 09:05:17;;;;;;;;;;;12.50;63.10;;;;;;4984427;28;88106;-38
2022/11/01 09:07:43;;;;;;;;;;;12.50;63.20;;;;;;4984907;28;88411;-38
2022/11/01 09:10:09;;;;;;;;;;;12.50;63.10;;;;;;4984608;28;87209;-38
2022/11/01 09:12:35;;;;;;;;;;;12.50;63.10;;;;;;4984483;28;87067;-38
2022/11/01 09:15:01;;;;;;;;;;;12.60;63.30;;;;;;4987195;28;87485;-38
2022/11/01 09:17:26;;;;;;;;;;;12.50;63.10;;;;;;4984812;28;87091;-38
2022/11/01 09:19:52;;;;;;;;;;;12.50;63.10;;;;;;4984933;28;87455;-38
2022/11/01 09:22:17;;;;;;;;;;;12.60;63.20;;;;;;4983890;28;87289;-38
2022/11/01 09:24:43;;;;;;;;;;;12.60;63.20;;;;;;4984902;28;86949;-38
2022/11/01 09:27:08;;;;;;;;;;;12.60;63.10;;;;;;4984641;28;87344;-38
2022/11/01 09:29:34;;;;;;;;;;;12.60;63.10;;;;;;4983455;28;88083;-38
2022/11/01 09:31:59;;;;;;;;;;;12.60;63.00;;;;;;4984788;28;87191;-38
2022/11/01 09:34:25;;;;;;;;;;;12.60;63.10;;;;;;4984505;28;87389;-38
2022/11/01 09:36:50;;;;;;;;;;;12.60;63.10;;;;;;4987118;28;88196;-38
2022/11/01 09:39:20;;;;;;;;;;;12.70;63.10;;;;;;4984563;28;87431;-38
2022/11/01 09:42:03;;;;;;;;;;;12.60;63.00;;;;;;4983999;28;87953;-38
2022/11/01 09:44:30;;;;;;;;;;;12.70;63.00;;;;;;4984526;28;86985;-38
2022/11/01 09:47:00;;;;;;;;;;;12.70;63.10;;;;;;4984538;28;87216;-38
2022/11/01 09:49:27;;;;;;;;;;;12.70;63.20;;;;;;4983567;28;88191;-39
2022/11/01 09:51:53;;;;;;;;;;;12.70;63.10;;;;;;4984217;28;86977;-38
2022/11/01 09:54:20;;;;;;;;;;;12.70;63.00;;;;;;4983629;28;88012;-38
2022/11/01 09:57:04;;;;;;;;;;;12.70;63.00;;;;;;4983857;28;88045;-38
2022/11/01 09:59:30;;;;;;;;;;;12.70;63.10;;;;;;4987188;28;87347;-38
2022/11/01 10:02:16;;;;;;;;;;;12.80;63.20;;;;;;4983802;28;88058;-38
2022/11/01 10:04:53;;;;;;;;;;;12.70;63.20;;;;;;4983943;28;86922;-38
2022/11/01 10:07:24;;;;;;;;;;;12.80;63.40;;;;;;4984078;28;87650;-38
2022/11/01 10:09:50;;;;;;;;;;;12.80;63.50;;;;;;4983725;28;87990;-38
2022/11/01 10:12:31;;;;;;;;;;;12.80;63.50;;;;;;4984314;28;86409;-38
2022/11/01 10:14:56;;;;;;;;;;;12.80;63.60;;;;;;4984135;28;87039;-38
2022/11/01 10:17:34;;;;;;;;;;;12.80;63.80;;;;;;4983518;28;87217;-38
2022/11/01 10:20:00;;;;;;;;;;;12.80;63.80;;;;;;4983150;28;88391;-38
2022/11/01 10:22:35;;;;;;;;;;;12.80;64.00;;;;;;4986719;28;88527;-38
2022/11/01 10:25:03;;;;;;;;;;;12.90;64.10;;;;;;4982448;28;87192;-38
2022/11/01 10:27:52;;;;;;;;;;;12.90;64.10;;;;;;4983790;28;86887;-38
2022/11/01 10:30:18;;;;;;;;;;;12.90;64.20;;;;;;4982383;28;87183;-38
2022/11/01 10:32:52;;;;;;;;;;;12.90;64.20;;;;;;4983686;28;87075;-38
2022/11/01 10:35:23;;;;;;;;;;;12.90;64.30;;;;;;4983393;28;87483;-38
2022/11/01 10:38:12;;;;;;;;;;;13.00;64.40;;;;;;4983829;28;87827;-38
2022/11/01 10:40:40;;;;;;;;;;;13.00;64.60;;;;;;4983351;28;87208;-38
2022/11/01 10:43:13;;;;;;;;;;;13.00;64.50;;;;;;4983325;28;87551;-38
2022/11/01 10:45:40;;;;;;;;;;;13.00;64.40;;;;;;4985107;28;91239;-38
2022/11/01 10:48:06;;;;;;;;;;;13.00;64.60;;;;;;4983140;28;88141;-38
2022/11/01 10:50:31;;;;;;;;;;;13.00;64.60;;;;;;4983107;28;87983;-38
2022/11/01 10:53:10;;;;;;;;;;;13.10;64.60;;;;;;4983303;28;87482;-38
2022/11/01 10:55:42;;;;;;;;;;;13.10;64.60;;;;;;4983241;28;87345;-38
2022/11/01 10:58:19;;;;;;;;;;;13.10;64.70;;;;;;4982913;28;88105;-38
2022/11/01 11:00:45;;;;;;;;;;;13.10;64.60;;;;;;4983418;28;87091;-38
2022/11/01 11:03:36;;;;;;;;;;;13.10;64.70;;;;;;4983661;28;87485;-38
2022/11/01 11:06:04;;;;;;;;;;;13.10;64.60;;;;;;4982199;28;88178;-38
2022/11/01 11:08:30;;;;;;;;;;;13.10;64.80;;;;;;4985916;28;86791;-38
2022/11/01 11:10:56;;;;;;;;;;;13.20;64.90;;;;;;4980698;28;92528;-38
2022/11/01 11:13:23;;;;;;;;;;;13.20;64.90;;;;;;4982939;28;87006;-38
2022/11/01 11:15:52;;;;;;;;;;;13.20;64.90;;;;;;4983151;28;87514;-38
2022/11/01 11:18:26;;;;;;;;;;;13.20;64.90;;;;;;4982498;28;87936;-38
2022/11/01 11:20:54;;;;;;;;;;;13.20;64.90;;;;;;4983158;28;87034;-38
2022/11/01 11:23:21;;;;;;;;;;;13.30;64.90;;;;;;4983013;28;87408;-38
2022/11/01 11:25:49;;;;;;;;;;;13.30;65.00;;;;;;4982551;28;88177;-38
2022/11/01 11:28:20;;;;;;;;;;;13.30;64.90;;;;;;4986196;28;86387;-38
2022/11/01 11:30:46;;;;;;;;;;;13.30;64.90;;;;;;4982162;28;87974;-38
2022/11/01 11:33:15;;;;;;;;;;;13.30;64.90;;;;;;4982841;28;87144;-38
2022/11/01 11:35:43;;;;;;;;;;;13.30;64.90;;;;;;4982349;28;89183;-38
2022/11/01 11:38:13;;;;;;;;;;;13.40;65.00;;;;;;4982474;28;88081;-38
2022/11/01 11:40:39;;;;;;;;;;;13.30;64.90;;;;;;4982571;28;87176;-38
2022/11/01 11:43:24;;;;;;;;;;;13.40;65.00;;;;;;4982778;28;87341;-38
2022/11/01 11:46:08;;;;;;;;;;;13.40;65.00;;;;;;4981715;28;87957;-38
2022/11/01 11:48:44;;;;;;;;;;;13.40;65.00;;;;;;4982409;28;87318;-38
2022/11/01 11:51:10;;;;;;;;;;;13.40;65.00;;;;;;4985541;28;87515;-38
2022/11/01 11:53:36;;;;;;;;;;;13.50;65.00;;;;;;4983081;28;86833;-38
2022/11/01 11:56:02;;;;;;;;;;;13.50;65.00;;;;;;4982539;28;86973;-38
2022/11/01 11:58:32;;;;;;;;;;;13.50;64.90;;;;;;4982213;28;88217;-38
2022/11/01 12:01:00;;;;;;;;;;;13.50;65.00;;;;;;4981644;28;88101;-38
2022/11/01 12:03:26;;;;;;;;;;;13.50;65.00;;;;;;4982373;28;88409;-38
2022/11/01 12:05:52;;;;;;;;;;;13.60;65.00;;;;;;4982134;28;88068;-38
2022/11/01 12:08:24;;;;;;;;;;;13.60;65.00;;;;;;4982231;28;86999;-38
2022/11/01 12:10:55;;;;;;;;;;;13.60;64.90;;;;;;4982401;28;87725;-38
2022/11/01 12:13:31;;;;;;;;;;;13.60;65.00;;;;;;4984902;28;88638;-38
2022/11/01 12:16:06;;;;;;;;;;;13.60;65.00;;;;;;4982455;28;87486;-38
2022/11/01 12:18:32;;;;;;;;;;;13.60;65.00;;;;;;4982612;28;87206;-38
2022/11/01 12:20:58;;;;;;;;;;;13.70;65.00;;;;;;4982475;28;87316;-38
2022/11/01 12:23:29;;;;;;;;;;;13.70;65.00;;;;;;4982411;28;87496;-38
2022/11/01 12:25:56;;;;;;;;;;;13.70;65.00;;;;;;4981372;28;88041;-38
2022/11/01 12:28:22;;;;;;;;;;;13.70;65.00;;;;;;4982068;28;87090;-38
2022/11/01 12:30:50;;;;;;;;;;;13.70;64.90;;;;;;4982162;28;87403;-38
2022/11/01 12:33:18;;;;;;;;;;;13.70;64.90;;;;;;4981745;28;88153;-38
2022/11/01 12:35:45;;;;;;;;;;;13.80;64.90;;;;;;4985033;28;87118;-38
2022/11/01 12:38:29;;;;;;;;;;;13.80;65.00;;;;;;4981670;28;88185;-38
2022/11/01 12:40:55;;;;;;;;;;;13.80;65.10;;;;;;4982123;28;87080;-38
2022/11/01 12:43:24;;;;;;;;;;;13.80;64.80;;;;;;4981199;28;90357;-38
2022/11/01 12:45:52;;;;;;;;;;;13.80;64.90;;;;;;4981565;28;87210;-38
2022/11/01 12:48:32;;;;;;;;;;;13.80;64.90;;;;;;4981767;28;87104;-38
2022/11/01 12:51:06;;;;;;;;;;;13.90;65.00;;;;;;4981467;28;87917;-38
2022/11/01 12:53:52;;;;;;;;;;;13.90;64.90;;;;;;4981600;28;87947;-38
2022/11/01 12:56:17;;;;;;;;;;;13.90;64.90;;;;;;4981115;28;88182;-38
2022/11/01 12:58:43;;;;;;;;;;;13.90;64.90;;;;;;4987404;28;86876;-38
2022/11/01 13:01:11;;;;;;;;;;;14.00;64.80;;;;;;4985095;28;87121;-38
2022/11/01 13:03:40;;;;;;;;;;;14.00;65.00;;;;;;4985047;28;87650;-38
2022/11/01 13:06:12;;;;;;;;;;;14.00;64.90;;;;;;4984774;28;88393;-38
2022/11/01 13:08:41;;;;;;;;;;;14.00;65.00;;;;;;4985481;28;86264;-38
2022/11/01 13:11:13;;;;;;;;;;;14.10;65.10;;;;;;4984940;28;87208;-38
2022/11/01 13:13:43;;;;;;;;;;;14.00;64.80;;;;;;4984337;28;88302;-38
2022/11/01 13:16:13;;;;;;;;;;;14.10;65.00;;;;;;4984067;28;88006;-38
2022/11/01 13:18:45;;;;;;;;;;;14.10;64.90;;;;;;4987192;28;87718;-38
2022/11/01 13:21:14;;;;;;;;;;;14.10;64.90;;;;;;4984917;28;87098;-38
2022/11/01 13:24:02;;;;;;;;;;;14.10;64.90;;;;;;4984605;28;87168;-38
2022/11/01 13:26:36;;;;;;;;;;;14.10;65.00;;;;;;4984271;28;87792;-38
2022/11/01 13:29:05;;;;;;;;;;;14.20;65.00;;;;;;4984964;28;87018;-38
2022/11/01 13:31:44;;;;;;;;;;;14.20;65.00;;;;;;4984799;28;87399;-38
2022/11/01 13:34:19;;;;;;;;;;;14.20;65.00;;;;;;4984600;28;87393;-38
2022/11/01 13:37:03;;;;;;;;;;;14.20;65.00;;;;;;4984639;28;86999;-38
2022/11/01 13:39:36;;;;;;;;;;;14.20;65.00;;;;;;4984836;28;87487;-38
2022/11/01 13:42:14;;;;;;;;;;;14.30;65.00;;;;;;4986342;28;89071;-38
2022/11/01 13:44:51;;;;;;;;;;;14.30;65.00;;;;;;4984239;28;88460;-39
2022/11/01 13:47:17;;;;;;;;;;;14.30;65.00;;;;;;4983839;28;88112;-38
2022/11/01 13:49:46;;;;;;;;;;;14.30;65.10;;;;;;4984212;28;87198;-39
2022/11/01 13:52:19;;;;;;;;;;;14.30;65.00;;;;;;4984287;28;87655;-38
2022/11/01 13:54:50;;;;;;;;;;;14.30;65.00;;;;;;4983785;28;88052;-38
2022/11/01 13:57:17;;;;;;;;;;;14.40;65.00;;;;;;4984261;28;87121;-38
2022/11/01 13:59:44;;;;;;;;;;;14.40;65.00;;;;;;4984615;28;87484;-38
2022/11/01 14:02:22;;;;;;;;;;;14.40;65.00;;;;;;4983724;28;87715;-38
2022/11/01 14:04:59;;;;;;;;;;;14.40;65.10;;;;;;4987079;28;87206;-38
2022/11/01 14:07:29;;;;;;;;;;;14.40;65.00;;;;;;4982839;28;89107;-38
2022/11/01 14:09:55;;;;;;;;;;;14.50;65.00;;;;;;4983199;28;87180;-38
2022/11/01 14:12:30;;;;;;;;;;;14.50;65.00;;;;;;4983919;28;88018;-38
2022/11/01 14:15:08;;;;;;;;;;;14.50;65.00;;;;;;4983791;28;88053;-38
2022/11/01 14:17:34;;;;;;;;;;;14.50;65.10;;;;;;4983753;28;87179;-38
2022/11/01 14:19:59;;;;;;;;;;;14.60;65.10;;;;;;4983685;28;86928;-38
2022/11/01 14:22:26;;;;;;;;;;;14.60;65.00;;;;;;4983225;28;89086;-38
2022/11/01 14:24:56;;;;;;;;;;;14.60;65.00;;;;;;4984392;28;86147;-38
2022/11/01 14:27:28;;;;;;;;;;;14.60;65.00;;;;;;4986499;28;87115;-38
2022/11/01 14:29:55;;;;;;;;;;;14.60;65.00;;;;;;4983649;28;87113;-38
2022/11/01 14:32:22;;;;;;;;;;;14.60;65.00;;;;;;4983182;28;88039;-38